Aérodrome :
LOGIN :

S'inscrire | Disclaimer

   EN    FR    IT 

 










Légende :    VFR   VFR Marginal   IFR   IFR Intensif   IFR Très Intensif
Visi : 
Plafond : 
>= 8 km
>= 3000ft
5 à 8 km
1000 à 3000 ft
1500m à 5 km
500 à 1000 ft
800 à 1500m
200 à 500 ft
< 800m
< 200 ft
Symboles :   Orages  Brouillard  Fortes neiges  Fortes précipitations  Vent > 20 kt
SIGMETs :   Divers  Orages  Givrage  Turbulence  Onde Orograph.  Cendres Volcan.






- Altitude de l'aérodrome : 465 ft
- Code IATA : OMR


LROD - Oradea International

DERNIER METAR :
  • 271030Z 22008KT 9999 FEW023 BKN039 19/14 Q1001

METARs EXPIRÉS :
  • 271000Z 18005KT 140V220 9999 FEW019 BKN040 19/15 Q1002
  • 270930Z 20005KT 130V240 9999 FEW019 SCT040 19/15 Q1002
  • 270900Z 19006KT 140V250 9999 FEW018 BKN039 19/15 Q1002
  • 270830Z 16005KT 100V230 9999 FEW011 BKN034 18/16 Q1002
  • 270800Z 08004KT 8000 FEW003 16/15 Q1002
  • 270730Z AUTO 11005KT 070V140 5000 FEW002/// SCT035/// 15/15 Q1002

TAF TAF LROD
Valide du 27 à 09h jusqu'au 27 à 18h UTC


270800Z 2709/2718 VRB04KT 9999 SCT005 BKN035
TEMPO 2713/2718 20010KT 5000 TSRA SCT015 SCT030CB



MET'MAP, la Météo Aéronautique d'un coup d'oeil ! - Copyright ORBIFLY Décembre 2007 - Disclaimer

ORBIFLY MET'MAP TEAM :

Programmation & Développement : Alexandra Zaïnal
Sur une idée originale de : Baudouin d'Aumeries
Soutien technique & logistique : Manuel Goepfert
Assistance : Marc-Olivier Méhu




SOURCES & CREDITS :

   NOAA